sensor_id;sensor_type;location;lat;lon;timestamp;P1;durP1;ratioP1;P2;durP2;ratioP2
1993;SDS011;998;49.906;10.908;2023-01-28T00:01:28;8.10;;;3.20;;
1993;SDS011;998;49.906;10.908;2023-01-28T00:03:55;10.63;;;4.97;;
1993;SDS011;998;49.906;10.908;2023-01-28T00:06:24;10.90;;;4.33;;
1993;SDS011;998;49.906;10.908;2023-01-28T00:08:51;7.63;;;3.20;;
1993;SDS011;998;49.906;10.908;2023-01-28T00:11:20;8.60;;;3.40;;
1993;SDS011;998;49.906;10.908;2023-01-28T00:13:50;7.00;;;2.77;;
1993;SDS011;998;49.906;10.908;2023-01-28T00:16:19;8.77;;;3.80;;
1993;SDS011;998;49.906;10.908;2023-01-28T00:18:47;7.50;;;2.70;;
1993;SDS011;998;49.906;10.908;2023-01-28T00:21:15;7.30;;;2.70;;
1993;SDS011;998;49.906;10.908;2023-01-28T00:23:44;8.70;;;3.03;;
1993;SDS011;998;49.906;10.908;2023-01-28T00:26:15;8.93;;;3.03;;
1993;SDS011;998;49.906;10.908;2023-01-28T00:28:43;8.23;;;3.20;;
1993;SDS011;998;49.906;10.908;2023-01-28T00:31:13;9.00;;;3.57;;
1993;SDS011;998;49.906;10.908;2023-01-28T00:33:42;8.97;;;3.30;;
1993;SDS011;998;49.906;10.908;2023-01-28T00:36:10;9.20;;;4.40;;
1993;SDS011;998;49.906;10.908;2023-01-28T00:38:38;8.53;;;3.73;;
1993;SDS011;998;49.906;10.908;2023-01-28T00:41:06;6.83;;;2.60;;
1993;SDS011;998;49.906;10.908;2023-01-28T00:43:35;10.03;;;4.07;;
1993;SDS011;998;49.906;10.908;2023-01-28T00:46:02;9.93;;;4.03;;
1993;SDS011;998;49.906;10.908;2023-01-28T00:48:32;9.40;;;4.13;;
1993;SDS011;998;49.906;10.908;2023-01-28T00:51:00;7.67;;;2.57;;
1993;SDS011;998;49.906;10.908;2023-01-28T00:53:28;8.40;;;4.27;;
1993;SDS011;998;49.906;10.908;2023-01-28T00:55:56;9.63;;;4.03;;
1993;SDS011;998;49.906;10.908;2023-01-28T00:58:24;8.73;;;4.47;;
1993;SDS011;998;49.906;10.908;2023-01-28T01:00:52;10.70;;;4.10;;
1993;SDS011;998;49.906;10.908;2023-01-28T01:03:19;9.70;;;4.53;;
1993;SDS011;998;49.906;10.908;2023-01-28T01:05:48;9.53;;;5.07;;
1993;SDS011;998;49.906;10.908;2023-01-28T01:08:15;8.23;;;3.63;;
1993;SDS011;998;49.906;10.908;2023-01-28T01:10:43;12.97;;;6.87;;
1993;SDS011;998;49.906;10.908;2023-01-28T01:13:10;12.90;;;5.73;;
1993;SDS011;998;49.906;10.908;2023-01-28T01:15:38;11.17;;;5.63;;
1993;SDS011;998;49.906;10.908;2023-01-28T01:18:05;12.97;;;6.90;;
1993;SDS011;998;49.906;10.908;2023-01-28T01:20:32;9.80;;;4.63;;
1993;SDS011;998;49.906;10.908;2023-01-28T01:23:06;9.67;;;4.37;;
1993;SDS011;998;49.906;10.908;2023-01-28T01:25:34;11.77;;;5.07;;
1993;SDS011;998;49.906;10.908;2023-01-28T01:28:01;9.00;;;4.10;;
1993;SDS011;998;49.906;10.908;2023-01-28T01:30:29;10.67;;;4.70;;
1993;SDS011;998;49.906;10.908;2023-01-28T01:32:56;8.70;;;4.57;;
1993;SDS011;998;49.906;10.908;2023-01-28T01:35:24;10.93;;;5.60;;
1993;SDS011;998;49.906;10.908;2023-01-28T01:37:51;11.27;;;5.20;;
1993;SDS011;998;49.906;10.908;2023-01-28T01:40:20;10.03;;;4.57;;
1993;SDS011;998;49.906;10.908;2023-01-28T01:42:47;10.47;;;4.80;;
1993;SDS011;998;49.906;10.908;2023-01-28T01:45:14;13.93;;;4.93;;
1993;SDS011;998;49.906;10.908;2023-01-28T01:47:43;10.93;;;4.73;;
1993;SDS011;998;49.906;10.908;2023-01-28T01:50:15;9.90;;;4.30;;
1993;SDS011;998;49.906;10.908;2023-01-28T01:52:50;12.40;;;5.37;;
1993;SDS011;998;49.906;10.908;2023-01-28T01:55:23;11.03;;;5.13;;
1993;SDS011;998;49.906;10.908;2023-01-28T01:57:53;11.07;;;5.00;;
1993;SDS011;998;49.906;10.908;2023-01-28T02:00:24;9.03;;;3.80;;
1993;SDS011;998;49.906;10.908;2023-01-28T02:02:51;11.73;;;4.50;;
1993;SDS011;998;49.906;10.908;2023-01-28T02:05:21;11.30;;;4.57;;
1993;SDS011;998;49.906;10.908;2023-01-28T02:07:49;10.03;;;4.20;;
1993;SDS011;998;49.906;10.908;2023-01-28T02:10:41;14.27;;;5.47;;
1993;SDS011;998;49.906;10.908;2023-01-28T02:13:09;13.03;;;5.83;;
1993;SDS011;998;49.906;10.908;2023-01-28T02:15:37;13.80;;;6.97;;
1993;SDS011;998;49.906;10.908;2023-01-28T02:18:05;9.87;;;4.23;;
1993;SDS011;998;49.906;10.908;2023-01-28T02:20:35;11.07;;;5.30;;
1993;SDS011;998;49.906;10.908;2023-01-28T02:23:20;13.27;;;5.60;;
1993;SDS011;998;49.906;10.908;2023-01-28T02:29:00;11.90;;;5.53;;
1993;SDS011;998;49.906;10.908;2023-01-28T02:31:37;9.20;;;4.30;;
1993;SDS011;998;49.906;10.908;2023-01-28T02:34:10;13.20;;;5.47;;
1993;SDS011;998;49.906;10.908;2023-01-28T02:36:44;22.10;;;6.83;;
1993;SDS011;998;49.906;10.908;2023-01-28T02:39:15;12.60;;;6.23;;
1993;SDS011;998;49.906;10.908;2023-01-28T02:41:47;13.17;;;6.40;;
1993;SDS011;998;49.906;10.908;2023-01-28T02:44:20;13.20;;;5.53;;
1993;SDS011;998;49.906;10.908;2023-01-28T02:46:47;14.00;;;7.20;;
1993;SDS011;998;49.906;10.908;2023-01-28T02:49:36;11.10;;;5.50;;
1993;SDS011;998;49.906;10.908;2023-01-28T02:52:13;12.17;;;5.50;;
1993;SDS011;998;49.906;10.908;2023-01-28T02:55:17;11.50;;;4.97;;
1993;SDS011;998;49.906;10.908;2023-01-28T02:57:56;12.83;;;5.33;;
1993;SDS011;998;49.906;10.908;2023-01-28T03:00:31;11.60;;;5.87;;
1993;SDS011;998;49.906;10.908;2023-01-28T03:03:06;9.73;;;4.97;;
1993;SDS011;998;49.906;10.908;2023-01-28T03:05:42;9.80;;;5.63;;
1993;SDS011;998;49.906;10.908;2023-01-28T03:08:28;13.20;;;5.80;;
1993;SDS011;998;49.906;10.908;2023-01-28T03:11:15;12.77;;;5.80;;
1993;SDS011;998;49.906;10.908;2023-01-28T03:14:01;11.93;;;5.20;;
1993;SDS011;998;49.906;10.908;2023-01-28T03:16:46;16.53;;;6.97;;
1993;SDS011;998;49.906;10.908;2023-01-28T03:19:33;13.30;;;5.87;;
1993;SDS011;998;49.906;10.908;2023-01-28T03:22:18;21.13;;;6.27;;
1993;SDS011;998;49.906;10.908;2023-01-28T03:25:04;9.17;;;4.80;;
1993;SDS011;998;49.906;10.908;2023-01-28T03:27:52;10.00;;;5.47;;
1993;SDS011;998;49.906;10.908;2023-01-28T03:30:39;8.17;;;4.67;;
1993;SDS011;998;49.906;10.908;2023-01-28T03:33:30;9.73;;;4.77;;
1993;SDS011;998;49.906;10.908;2023-01-28T03:36:16;11.07;;;5.10;;
1993;SDS011;998;49.906;10.908;2023-01-28T03:39:01;12.80;;;4.63;;
1993;SDS011;998;49.906;10.908;2023-01-28T03:41:28;10.83;;;4.63;;
1993;SDS011;998;49.906;10.908;2023-01-28T03:43:56;13.93;;;6.40;;
1993;SDS011;998;49.906;10.908;2023-01-28T03:46:37;12.70;;;6.60;;
1993;SDS011;998;49.906;10.908;2023-01-28T03:49:06;12.77;;;6.60;;
1993;SDS011;998;49.906;10.908;2023-01-28T03:51:33;10.73;;;4.60;;
1993;SDS011;998;49.906;10.908;2023-01-28T03:54:00;12.30;;;4.80;;
1993;SDS011;998;49.906;10.908;2023-01-28T03:56:28;10.23;;;5.00;;
1993;SDS011;998;49.906;10.908;2023-01-28T03:59:01;12.63;;;5.67;;
1993;SDS011;998;49.906;10.908;2023-01-28T04:01:29;12.33;;;4.77;;
1993;SDS011;998;49.906;10.908;2023-01-28T04:03:56;15.83;;;4.67;;
1993;SDS011;998;49.906;10.908;2023-01-28T04:06:25;11.00;;;4.73;;
1993;SDS011;998;49.906;10.908;2023-01-28T04:08:53;11.50;;;5.10;;
1993;SDS011;998;49.906;10.908;2023-01-28T04:11:23;12.30;;;5.43;;
1993;SDS011;998;49.906;10.908;2023-01-28T04:13:51;10.60;;;4.80;;
1993;SDS011;998;49.906;10.908;2023-01-28T04:16:19;10.80;;;4.50;;
1993;SDS011;998;49.906;10.908;2023-01-28T04:18:46;11.10;;;4.37;;
1993;SDS011;998;49.906;10.908;2023-01-28T04:21:14;11.87;;;5.20;;
1993;SDS011;998;49.906;10.908;2023-01-28T04:23:42;9.87;;;3.83;;
1993;SDS011;998;49.906;10.908;2023-01-28T04:26:10;11.80;;;4.20;;
1993;SDS011;998;49.906;10.908;2023-01-28T04:28:37;11.87;;;5.37;;
1993;SDS011;998;49.906;10.908;2023-01-28T04:31:05;10.40;;;4.53;;
1993;SDS011;998;49.906;10.908;2023-01-28T04:33:32;11.40;;;5.10;;
1993;SDS011;998;49.906;10.908;2023-01-28T04:36:00;11.90;;;5.00;;
1993;SDS011;998;49.906;10.908;2023-01-28T04:38:27;11.73;;;5.17;;
1993;SDS011;998;49.906;10.908;2023-01-28T04:40:56;11.07;;;5.17;;
1993;SDS011;998;49.906;10.908;2023-01-28T04:43:23;12.37;;;4.50;;
1993;SDS011;998;49.906;10.908;2023-01-28T04:45:51;12.07;;;4.83;;
1993;SDS011;998;49.906;10.908;2023-01-28T04:48:18;12.40;;;4.53;;
1993;SDS011;998;49.906;10.908;2023-01-28T04:50:45;10.70;;;4.33;;
1993;SDS011;998;49.906;10.908;2023-01-28T04:53:13;11.03;;;4.60;;
1993;SDS011;998;49.906;10.908;2023-01-28T04:55:40;10.87;;;4.10;;
1993;SDS011;998;49.906;10.908;2023-01-28T04:58:09;11.57;;;4.90;;
1993;SDS011;998;49.906;10.908;2023-01-28T05:00:36;11.77;;;3.83;;
1993;SDS011;998;49.906;10.908;2023-01-28T05:03:04;12.77;;;5.03;;
1993;SDS011;998;49.906;10.908;2023-01-28T05:05:31;12.13;;;3.63;;
1993;SDS011;998;49.906;10.908;2023-01-28T05:07:59;10.47;;;4.40;;
1993;SDS011;998;49.906;10.908;2023-01-28T05:10:26;11.00;;;4.40;;
1993;SDS011;998;49.906;10.908;2023-01-28T05:12:53;13.40;;;4.77;;
1993;SDS011;998;49.906;10.908;2023-01-28T05:15:22;12.03;;;3.60;;
1993;SDS011;998;49.906;10.908;2023-01-28T05:17:52;10.40;;;3.97;;
1993;SDS011;998;49.906;10.908;2023-01-28T05:20:20;12.07;;;4.20;;
1993;SDS011;998;49.906;10.908;2023-01-28T05:22:47;11.00;;;3.97;;
1993;SDS011;998;49.906;10.908;2023-01-28T05:25:15;10.30;;;3.90;;
1993;SDS011;998;49.906;10.908;2023-01-28T05:27:42;9.40;;;3.40;;
1993;SDS011;998;49.906;10.908;2023-01-28T05:30:14;9.63;;;3.20;;
1993;SDS011;998;49.906;10.908;2023-01-28T05:32:43;13.60;;;3.97;;
1993;SDS011;998;49.906;10.908;2023-01-28T05:35:11;10.17;;;3.97;;
1993;SDS011;998;49.906;10.908;2023-01-28T05:37:38;10.10;;;3.67;;
1993;SDS011;998;49.906;10.908;2023-01-28T05:40:06;10.23;;;4.10;;
1993;SDS011;998;49.906;10.908;2023-01-28T05:42:34;10.00;;;3.60;;
1993;SDS011;998;49.906;10.908;2023-01-28T05:45:01;11.23;;;3.97;;
1993;SDS011;998;49.906;10.908;2023-01-28T05:47:29;8.43;;;3.30;;
1993;SDS011;998;49.906;10.908;2023-01-28T05:49:58;12.47;;;4.13;;
1993;SDS011;998;49.906;10.908;2023-01-28T05:52:25;8.20;;;2.90;;
1993;SDS011;998;49.906;10.908;2023-01-28T05:54:53;7.33;;;2.57;;
1993;SDS011;998;49.906;10.908;2023-01-28T05:57:20;7.60;;;2.63;;
1993;SDS011;998;49.906;10.908;2023-01-28T05:59:48;6.70;;;2.40;;
1993;SDS011;998;49.906;10.908;2023-01-28T06:02:15;6.53;;;1.97;;
1993;SDS011;998;49.906;10.908;2023-01-28T06:04:42;7.30;;;2.40;;
1993;SDS011;998;49.906;10.908;2023-01-28T06:07:11;7.60;;;2.57;;
1993;SDS011;998;49.906;10.908;2023-01-28T06:09:43;6.30;;;2.33;;
1993;SDS011;998;49.906;10.908;2023-01-28T06:12:11;7.47;;;2.73;;
1993;SDS011;998;49.906;10.908;2023-01-28T06:14:38;7.00;;;2.30;;
1993;SDS011;998;49.906;10.908;2023-01-28T06:17:06;5.90;;;2.20;;
1993;SDS011;998;49.906;10.908;2023-01-28T06:19:33;6.03;;;2.10;;
1993;SDS011;998;49.906;10.908;2023-01-28T06:22:00;6.87;;;2.37;;
1993;SDS011;998;49.906;10.908;2023-01-28T06:24:29;7.27;;;2.57;;
1993;SDS011;998;49.906;10.908;2023-01-28T06:26:57;6.47;;;1.97;;
1993;SDS011;998;49.906;10.908;2023-01-28T06:29:24;6.60;;;2.40;;
1993;SDS011;998;49.906;10.908;2023-01-28T06:31:52;5.67;;;1.90;;
1993;SDS011;998;49.906;10.908;2023-01-28T06:34:19;6.83;;;2.80;;
1993;SDS011;998;49.906;10.908;2023-01-28T06:36:46;5.67;;;1.97;;
1993;SDS011;998;49.906;10.908;2023-01-28T06:39:15;6.13;;;2.43;;
1993;SDS011;998;49.906;10.908;2023-01-28T06:41:43;5.80;;;2.17;;
1993;SDS011;998;49.906;10.908;2023-01-28T06:44:11;5.63;;;2.00;;
1993;SDS011;998;49.906;10.908;2023-01-28T06:46:38;5.90;;;2.10;;
1993;SDS011;998;49.906;10.908;2023-01-28T06:49:06;5.30;;;1.83;;
1993;SDS011;998;49.906;10.908;2023-01-28T06:51:33;6.27;;;2.60;;
1993;SDS011;998;49.906;10.908;2023-01-28T06:54:00;7.50;;;2.80;;
1993;SDS011;998;49.906;10.908;2023-01-28T06:56:27;4.93;;;1.90;;
1993;SDS011;998;49.906;10.908;2023-01-28T06:58:55;5.50;;;1.70;;
1993;SDS011;998;49.906;10.908;2023-01-28T07:01:22;5.03;;;2.00;;
1993;SDS011;998;49.906;10.908;2023-01-28T07:03:50;6.70;;;2.50;;
1993;SDS011;998;49.906;10.908;2023-01-28T07:06:17;5.50;;;2.10;;
1993;SDS011;998;49.906;10.908;2023-01-28T07:08:44;6.57;;;2.40;;
1993;SDS011;998;49.906;10.908;2023-01-28T07:11:12;5.47;;;2.40;;
1993;SDS011;998;49.906;10.908;2023-01-28T07:13:39;6.43;;;1.93;;
1993;SDS011;998;49.906;10.908;2023-01-28T07:16:09;5.30;;;2.27;;
1993;SDS011;998;49.906;10.908;2023-01-28T07:18:36;4.90;;;1.77;;
1993;SDS011;998;49.906;10.908;2023-01-28T07:21:03;5.33;;;2.00;;
1993;SDS011;998;49.906;10.908;2023-01-28T07:23:31;5.67;;;2.23;;
1993;SDS011;998;49.906;10.908;2023-01-28T07:26:00;4.93;;;2.00;;
1993;SDS011;998;49.906;10.908;2023-01-28T07:28:27;5.70;;;2.23;;
1993;SDS011;998;49.906;10.908;2023-01-28T07:30:54;5.80;;;2.00;;
1993;SDS011;998;49.906;10.908;2023-01-28T07:33:23;4.27;;;1.90;;
1993;SDS011;998;49.906;10.908;2023-01-28T07:35:51;4.40;;;2.17;;
1993;SDS011;998;49.906;10.908;2023-01-28T07:38:18;4.40;;;1.80;;
1993;SDS011;998;49.906;10.908;2023-01-28T07:40:45;6.10;;;2.60;;
1993;SDS011;998;49.906;10.908;2023-01-28T07:43:13;6.10;;;2.90;;
1993;SDS011;998;49.906;10.908;2023-01-28T07:45:40;6.53;;;2.00;;
1993;SDS011;998;49.906;10.908;2023-01-28T07:48:09;5.37;;;2.10;;
1993;SDS011;998;49.906;10.908;2023-01-28T07:50:39;4.40;;;1.57;;
1993;SDS011;998;49.906;10.908;2023-01-28T07:53:07;5.40;;;1.97;;
1993;SDS011;998;49.906;10.908;2023-01-28T07:55:35;4.10;;;1.60;;
1993;SDS011;998;49.906;10.908;2023-01-28T07:58:03;4.67;;;1.50;;
1993;SDS011;998;49.906;10.908;2023-01-28T08:00:33;3.43;;;1.50;;
1993;SDS011;998;49.906;10.908;2023-01-28T08:03:02;4.50;;;1.87;;
1993;SDS011;998;49.906;10.908;2023-01-28T08:05:32;4.50;;;2.00;;
1993;SDS011;998;49.906;10.908;2023-01-28T08:08:06;3.90;;;1.60;;
1993;SDS011;998;49.906;10.908;2023-01-28T08:10:36;4.33;;;1.70;;
1993;SDS011;998;49.906;10.908;2023-01-28T08:13:03;4.30;;;1.93;;
1993;SDS011;998;49.906;10.908;2023-01-28T08:15:31;4.43;;;1.80;;
1993;SDS011;998;49.906;10.908;2023-01-28T08:17:58;5.60;;;2.30;;
1993;SDS011;998;49.906;10.908;2023-01-28T08:20:26;5.07;;;1.80;;
1993;SDS011;998;49.906;10.908;2023-01-28T08:23:03;4.30;;;1.97;;
1993;SDS011;998;49.906;10.908;2023-01-28T08:25:36;3.80;;;1.60;;
1993;SDS011;998;49.906;10.908;2023-01-28T08:28:04;4.73;;;2.20;;
1993;SDS011;998;49.906;10.908;2023-01-28T08:30:33;4.37;;;2.03;;
1993;SDS011;998;49.906;10.908;2023-01-28T08:33:02;5.57;;;2.40;;
1993;SDS011;998;49.906;10.908;2023-01-28T08:35:30;3.90;;;1.80;;
1993;SDS011;998;49.906;10.908;2023-01-28T08:37:59;8.93;;;2.00;;
1993;SDS011;998;49.906;10.908;2023-01-28T08:40:28;3.93;;;1.70;;
1993;SDS011;998;49.906;10.908;2023-01-28T08:42:56;6.67;;;2.20;;
1993;SDS011;998;49.906;10.908;2023-01-28T08:45:24;7.10;;;2.40;;
1993;SDS011;998;49.906;10.908;2023-01-28T08:47:53;4.37;;;2.03;;
1993;SDS011;998;49.906;10.908;2023-01-28T08:50:21;3.10;;;1.20;;
1993;SDS011;998;49.906;10.908;2023-01-28T08:52:53;4.30;;;1.53;;
1993;SDS011;998;49.906;10.908;2023-01-28T08:55:21;4.17;;;1.77;;
1993;SDS011;998;49.906;10.908;2023-01-28T08:57:50;4.10;;;2.00;;
1993;SDS011;998;49.906;10.908;2023-01-28T09:00:18;3.20;;;1.70;;
1993;SDS011;998;49.906;10.908;2023-01-28T09:02:49;5.33;;;2.03;;
1993;SDS011;998;49.906;10.908;2023-01-28T09:05:17;4.53;;;1.73;;
1993;SDS011;998;49.906;10.908;2023-01-28T09:07:44;4.43;;;1.90;;
1993;SDS011;998;49.906;10.908;2023-01-28T09:10:11;3.90;;;1.87;;
1993;SDS011;998;49.906;10.908;2023-01-28T09:12:40;4.00;;;2.20;;
1993;SDS011;998;49.906;10.908;2023-01-28T09:15:09;3.23;;;1.70;;
1993;SDS011;998;49.906;10.908;2023-01-28T09:17:37;3.90;;;1.30;;
1993;SDS011;998;49.906;10.908;2023-01-28T09:20:05;3.93;;;1.73;;
1993;SDS011;998;49.906;10.908;2023-01-28T09:22:33;4.80;;;1.57;;
1993;SDS011;998;49.906;10.908;2023-01-28T09:25:00;4.23;;;1.50;;
1993;SDS011;998;49.906;10.908;2023-01-28T09:27:28;6.20;;;2.10;;
1993;SDS011;998;49.906;10.908;2023-01-28T09:29:55;3.47;;;1.80;;
1993;SDS011;998;49.906;10.908;2023-01-28T09:32:24;3.07;;;1.40;;
1993;SDS011;998;49.906;10.908;2023-01-28T09:34:51;2.50;;;1.40;;
1993;SDS011;998;49.906;10.908;2023-01-28T09:37:19;3.00;;;1.70;;
1993;SDS011;998;49.906;10.908;2023-01-28T09:39:46;3.37;;;1.73;;
1993;SDS011;998;49.906;10.908;2023-01-28T09:42:21;4.37;;;1.50;;
1993;SDS011;998;49.906;10.908;2023-01-28T09:45:05;3.57;;;1.70;;
1993;SDS011;998;49.906;10.908;2023-01-28T09:47:42;3.50;;;2.40;;
1993;SDS011;998;49.906;10.908;2023-01-28T09:50:14;5.00;;;2.10;;
1993;SDS011;998;49.906;10.908;2023-01-28T09:52:44;9.50;;;1.93;;
1993;SDS011;998;49.906;10.908;2023-01-28T09:55:14;3.60;;;1.70;;
1993;SDS011;998;49.906;10.908;2023-01-28T09:57:49;4.43;;;2.60;;
1993;SDS011;998;49.906;10.908;2023-01-28T10:00:20;5.83;;;2.30;;
1993;SDS011;998;49.906;10.908;2023-01-28T10:02:57;4.43;;;1.97;;
1993;SDS011;998;49.906;10.908;2023-01-28T10:05:38;3.17;;;1.30;;
1993;SDS011;998;49.906;10.908;2023-01-28T10:08:18;7.33;;;3.37;;
1993;SDS011;998;49.906;10.908;2023-01-28T10:11:00;6.37;;;2.30;;
1993;SDS011;998;49.906;10.908;2023-01-28T10:13:38;6.90;;;2.57;;
1993;SDS011;998;49.906;10.908;2023-01-28T10:16:19;5.07;;;2.40;;
1993;SDS011;998;49.906;10.908;2023-01-28T10:18:55;3.50;;;1.90;;
1993;SDS011;998;49.906;10.908;2023-01-28T10:21:28;3.50;;;2.00;;
1993;SDS011;998;49.906;10.908;2023-01-28T10:24:01;3.40;;;2.00;;
1993;SDS011;998;49.906;10.908;2023-01-28T10:26:32;3.33;;;1.70;;
1993;SDS011;998;49.906;10.908;2023-01-28T10:29:05;4.97;;;2.10;;
1993;SDS011;998;49.906;10.908;2023-01-28T10:31:39;3.83;;;2.00;;
1993;SDS011;998;49.906;10.908;2023-01-28T10:34:13;5.23;;;1.80;;
1993;SDS011;998;49.906;10.908;2023-01-28T10:36:41;3.53;;;2.00;;
1993;SDS011;998;49.906;10.908;2023-01-28T10:39:09;5.33;;;3.10;;
1993;SDS011;998;49.906;10.908;2023-01-28T10:41:39;3.17;;;2.17;;
1993;SDS011;998;49.906;10.908;2023-01-28T10:44:08;3.53;;;1.30;;
1993;SDS011;998;49.906;10.908;2023-01-28T10:46:43;8.27;;;2.97;;
1993;SDS011;998;49.906;10.908;2023-01-28T10:49:14;3.70;;;1.93;;
1993;SDS011;998;49.906;10.908;2023-01-28T10:51:44;3.00;;;1.77;;
1993;SDS011;998;49.906;10.908;2023-01-28T10:54:17;2.97;;;1.70;;
1993;SDS011;998;49.906;10.908;2023-01-28T10:56:46;4.10;;;2.23;;
1993;SDS011;998;49.906;10.908;2023-01-28T10:59:18;5.50;;;2.97;;
1993;SDS011;998;49.906;10.908;2023-01-28T11:01:48;5.33;;;2.60;;
1993;SDS011;998;49.906;10.908;2023-01-28T11:04:21;10.57;;;3.80;;
1993;SDS011;998;49.906;10.908;2023-01-28T11:06:54;5.60;;;2.83;;
1993;SDS011;998;49.906;10.908;2023-01-28T11:09:26;6.83;;;4.17;;
1993;SDS011;998;49.906;10.908;2023-01-28T11:11:55;5.63;;;3.50;;
1993;SDS011;998;49.906;10.908;2023-01-28T11:14:24;3.60;;;1.67;;
1993;SDS011;998;49.906;10.908;2023-01-28T11:16:53;4.10;;;1.90;;
1993;SDS011;998;49.906;10.908;2023-01-28T11:19:26;3.83;;;2.30;;
1993;SDS011;998;49.906;10.908;2023-01-28T11:21:57;3.20;;;1.67;;
1993;SDS011;998;49.906;10.908;2023-01-28T11:24:25;7.23;;;3.37;;
1993;SDS011;998;49.906;10.908;2023-01-28T11:26:56;4.40;;;2.13;;
1993;SDS011;998;49.906;10.908;2023-01-28T11:29:40;4.63;;;2.13;;
1993;SDS011;998;49.906;10.908;2023-01-28T11:32:15;4.43;;;2.60;;
1993;SDS011;998;49.906;10.908;2023-01-28T11:34:49;6.50;;;3.40;;
1993;SDS011;998;49.906;10.908;2023-01-28T11:37:19;2.90;;;1.67;;
1993;SDS011;998;49.906;10.908;2023-01-28T11:39:47;4.33;;;2.20;;
1993;SDS011;998;49.906;10.908;2023-01-28T11:42:25;4.37;;;2.60;;
1993;SDS011;998;49.906;10.908;2023-01-28T11:44:53;10.00;;;3.90;;
1993;SDS011;998;49.906;10.908;2023-01-28T11:50:19;3.30;;;2.20;;
1993;SDS011;998;49.906;10.908;2023-01-28T11:53:06;4.47;;;2.60;;
1993;SDS011;998;49.906;10.908;2023-01-28T11:55:57;3.73;;;2.60;;
1993;SDS011;998;49.906;10.908;2023-01-28T11:58:37;6.40;;;2.70;;
1993;SDS011;998;49.906;10.908;2023-01-28T12:01:14;3.47;;;2.17;;
1993;SDS011;998;49.906;10.908;2023-01-28T12:04:06;5.67;;;2.90;;
1993;SDS011;998;49.906;10.908;2023-01-28T12:07:05;4.67;;;2.80;;
1993;SDS011;998;49.906;10.908;2023-01-28T12:09:44;5.47;;;2.90;;
1993;SDS011;998;49.906;10.908;2023-01-28T12:18:15;7.20;;;3.40;;
1993;SDS011;998;49.906;10.908;2023-01-28T12:20:51;5.33;;;2.73;;
1993;SDS011;998;49.906;10.908;2023-01-28T12:23:31;6.93;;;4.37;;
1993;SDS011;998;49.906;10.908;2023-01-28T12:26:10;4.33;;;3.00;;
1993;SDS011;998;49.906;10.908;2023-01-28T12:28:45;3.90;;;2.70;;
1993;SDS011;998;49.906;10.908;2023-01-28T12:31:28;4.37;;;2.97;;
1993;SDS011;998;49.906;10.908;2023-01-28T12:34:28;4.20;;;2.77;;
1993;SDS011;998;49.906;10.908;2023-01-28T12:37:15;4.23;;;2.20;;
1993;SDS011;998;49.906;10.908;2023-01-28T12:39:56;5.20;;;2.80;;
1993;SDS011;998;49.906;10.908;2023-01-28T12:42:35;5.50;;;2.20;;
1993;SDS011;998;49.906;10.908;2023-01-28T12:45:11;5.20;;;2.83;;
1993;SDS011;998;49.906;10.908;2023-01-28T12:47:42;6.27;;;3.50;;
1993;SDS011;998;49.906;10.908;2023-01-28T12:50:16;4.00;;;2.70;;
1993;SDS011;998;49.906;10.908;2023-01-28T12:52:47;7.50;;;2.60;;
1993;SDS011;998;49.906;10.908;2023-01-28T12:55:21;6.83;;;3.00;;
1993;SDS011;998;49.906;10.908;2023-01-28T12:58:01;7.90;;;4.30;;
1993;SDS011;998;49.906;10.908;2023-01-28T13:00:31;5.13;;;2.67;;
1993;SDS011;998;49.906;10.908;2023-01-28T13:03:08;4.10;;;2.77;;
1993;SDS011;998;49.906;10.908;2023-01-28T13:05:42;4.73;;;3.03;;
1993;SDS011;998;49.906;10.908;2023-01-28T13:08:14;9.10;;;2.93;;
1993;SDS011;998;49.906;10.908;2023-01-28T13:10:49;3.43;;;1.90;;
1993;SDS011;998;49.906;10.908;2023-01-28T13:13:19;4.50;;;2.30;;
1993;SDS011;998;49.906;10.908;2023-01-28T13:15:52;7.27;;;2.67;;
1993;SDS011;998;49.906;10.908;2023-01-28T13:18:29;4.60;;;2.37;;
1993;SDS011;998;49.906;10.908;2023-01-28T13:20:59;4.00;;;1.80;;
1993;SDS011;998;49.906;10.908;2023-01-28T13:23:35;4.23;;;2.43;;
1993;SDS011;998;49.906;10.908;2023-01-28T13:26:10;4.30;;;2.63;;
1993;SDS011;998;49.906;10.908;2023-01-28T13:28:53;3.60;;;2.07;;
1993;SDS011;998;49.906;10.908;2023-01-28T13:31:35;3.67;;;2.00;;
1993;SDS011;998;49.906;10.908;2023-01-28T13:34:04;6.63;;;3.53;;
1993;SDS011;998;49.906;10.908;2023-01-28T13:36:33;4.30;;;2.47;;
1993;SDS011;998;49.906;10.908;2023-01-28T13:39:05;7.30;;;3.07;;
1993;SDS011;998;49.906;10.908;2023-01-28T13:41:43;4.37;;;1.93;;
1993;SDS011;998;49.906;10.908;2023-01-28T13:44:26;4.60;;;2.40;;
1993;SDS011;998;49.906;10.908;2023-01-28T13:46:58;3.40;;;2.10;;
1993;SDS011;998;49.906;10.908;2023-01-28T13:49:38;3.23;;;1.90;;
1993;SDS011;998;49.906;10.908;2023-01-28T13:52:11;5.90;;;2.27;;
1993;SDS011;998;49.906;10.908;2023-01-28T13:54:43;5.00;;;2.40;;
1993;SDS011;998;49.906;10.908;2023-01-28T14:00:22;2.90;;;1.97;;
1993;SDS011;998;49.906;10.908;2023-01-28T14:03:02;2.73;;;1.57;;
1993;SDS011;998;49.906;10.908;2023-01-28T14:05:58;6.80;;;2.20;;
1993;SDS011;998;49.906;10.908;2023-01-28T14:09:00;4.33;;;2.30;;
1993;SDS011;998;49.906;10.908;2023-01-28T14:17:57;3.10;;;1.60;;
1993;SDS011;998;49.906;10.908;2023-01-28T14:20:27;4.43;;;1.67;;
1993;SDS011;998;49.906;10.908;2023-01-28T14:23:02;5.53;;;2.07;;
1993;SDS011;998;49.906;10.908;2023-01-28T14:25:32;3.80;;;1.90;;
1993;SDS011;998;49.906;10.908;2023-01-28T14:28:08;5.00;;;2.03;;
1993;SDS011;998;49.906;10.908;2023-01-28T14:30:46;2.70;;;1.87;;
1993;SDS011;998;49.906;10.908;2023-01-28T14:33:19;11.47;;;4.23;;
1993;SDS011;998;49.906;10.908;2023-01-28T14:35:47;4.80;;;3.10;;
1993;SDS011;998;49.906;10.908;2023-01-28T14:38:16;4.90;;;2.97;;
1993;SDS011;998;49.906;10.908;2023-01-28T14:40:47;5.63;;;2.53;;
1993;SDS011;998;49.906;10.908;2023-01-28T14:43:17;5.53;;;3.13;;
1993;SDS011;998;49.906;10.908;2023-01-28T14:45:53;5.57;;;3.80;;
1993;SDS011;998;49.906;10.908;2023-01-28T14:48:31;4.80;;;2.63;;
1993;SDS011;998;49.906;10.908;2023-01-28T14:51:10;7.13;;;4.30;;
1993;SDS011;998;49.906;10.908;2023-01-28T14:56:59;5.00;;;2.40;;
1993;SDS011;998;49.906;10.908;2023-01-28T14:59:38;3.93;;;2.07;;
1993;SDS011;998;49.906;10.908;2023-01-28T15:04:45;3.00;;;1.30;;
1993;SDS011;998;49.906;10.908;2023-01-28T15:07:16;4.97;;;2.70;;
1993;SDS011;998;49.906;10.908;2023-01-28T15:09:45;6.60;;;3.70;;
1993;SDS011;998;49.906;10.908;2023-01-28T15:12:13;5.87;;;2.63;;
1993;SDS011;998;49.906;10.908;2023-01-28T15:14:42;10.00;;;5.10;;
1993;SDS011;998;49.906;10.908;2023-01-28T15:17:12;4.33;;;2.13;;
1993;SDS011;998;49.906;10.908;2023-01-28T15:19:49;7.63;;;2.77;;
1993;SDS011;998;49.906;10.908;2023-01-28T15:22:18;8.27;;;2.80;;
1993;SDS011;998;49.906;10.908;2023-01-28T15:24:50;4.23;;;2.00;;
1993;SDS011;998;49.906;10.908;2023-01-28T15:27:19;5.60;;;3.40;;
1993;SDS011;998;49.906;10.908;2023-01-28T15:29:54;4.23;;;2.53;;
1993;SDS011;998;49.906;10.908;2023-01-28T15:32:25;4.40;;;2.03;;
1993;SDS011;998;49.906;10.908;2023-01-28T15:34:54;4.30;;;2.23;;
1993;SDS011;998;49.906;10.908;2023-01-28T15:37:21;3.70;;;2.10;;
1993;SDS011;998;49.906;10.908;2023-01-28T15:39:58;5.07;;;2.17;;
1993;SDS011;998;49.906;10.908;2023-01-28T15:42:27;4.30;;;2.70;;
1993;SDS011;998;49.906;10.908;2023-01-28T15:44:56;6.60;;;3.50;;
1993;SDS011;998;49.906;10.908;2023-01-28T15:47:26;5.00;;;2.63;;
1993;SDS011;998;49.906;10.908;2023-01-28T15:49:57;3.73;;;2.30;;
1993;SDS011;998;49.906;10.908;2023-01-28T15:52:31;5.50;;;1.93;;
1993;SDS011;998;49.906;10.908;2023-01-28T15:55:01;6.30;;;3.53;;
1993;SDS011;998;49.906;10.908;2023-01-28T15:57:29;4.17;;;2.00;;
1993;SDS011;998;49.906;10.908;2023-01-28T16:00:09;5.50;;;3.10;;
1993;SDS011;998;49.906;10.908;2023-01-28T16:02:43;4.10;;;2.10;;
1993;SDS011;998;49.906;10.908;2023-01-28T16:05:24;4.43;;;2.07;;
1993;SDS011;998;49.906;10.908;2023-01-28T16:07:53;4.27;;;2.67;;